Time;durP1;ratioP1;P1;durP2;ratioP2;P2;SDS_P1;SDS_P2;PMS_P1;PMS_P2;Temp;Humidity;BMP_temperature;BMP_pressure;BME280_temperature;BME280_humidity;BME280_pressure;Samples;Min_cycle;Max_cycle;Signal;HPM_P1;HPM_P2
2023/03/01 00:01:22;;;;;;;8.07;6.67;;;7.70;58.70;7.50;96988.00;;;;5036300;28;20292;-81
2023/03/01 00:03:52;;;;;;;9.13;7.70;;;7.70;58.70;7.50;96993.00;;;;5037105;28;20730;-81
2023/03/01 00:06:21;;;;;;;9.40;7.00;;;7.70;58.80;7.50;96984.00;;;;5029183;28;20232;-81
2023/03/01 00:08:49;;;;;;;8.43;7.03;;;7.70;58.60;7.50;96980.00;;;;5032864;28;20284;-81
2023/03/01 00:11:19;;;;;;;9.13;7.70;;;7.70;58.70;7.50;96982.00;;;;5031719;28;20288;-81
2023/03/01 00:13:51;;;;;;;8.27;7.13;;;7.70;58.60;7.50;96982.00;;;;5029523;28;20193;-81
2023/03/01 00:16:22;;;;;;;11.43;8.30;;;7.70;58.70;7.40;96979.00;;;;5032436;28;20202;-82
2023/03/01 00:18:51;;;;;;;9.83;7.83;;;7.70;58.80;7.50;96974.00;;;;5033168;28;20223;-81
2023/03/01 00:21:21;;;;;;;9.30;7.50;;;7.70;58.80;7.50;96972.00;;;;5028173;28;20228;-80
2023/03/01 00:23:50;;;;;;;9.03;7.17;;;7.60;58.90;7.50;96974.00;;;;5027237;28;20198;-81
2023/03/01 00:26:20;;;;;;;9.90;7.80;;;7.70;58.90;7.50;96971.00;;;;5027369;28;20208;-80
2023/03/01 00:28:48;;;;;;;9.73;7.70;;;7.60;58.80;7.40;96974.00;;;;5030063;28;20197;-81
2023/03/01 00:31:19;;;;;;;11.90;7.23;;;7.60;58.80;7.40;96971.00;;;;5025801;28;20225;-80
2023/03/01 00:33:47;;;;;;;8.83;7.37;;;7.60;58.90;7.40;96965.00;;;;5028132;28;20200;-80
2023/03/01 00:36:18;;;;;;;8.33;6.80;;;7.60;58.80;7.40;96959.00;;;;5034580;28;20718;-81
2023/03/01 00:38:47;;;;;;;9.00;7.20;;;7.70;58.90;7.40;96963.00;;;;5034774;28;20739;-81
2023/03/01 00:41:17;;;;;;;7.83;7.03;;;7.60;58.80;7.40;96953.00;;;;5051903;28;20212;-81
2023/03/01 00:43:47;;;;;;;9.00;7.43;;;7.60;58.90;7.40;96957.00;;;;5035117;28;20197;-81
2023/03/01 00:46:17;;;;;;;9.27;7.20;;;7.60;58.90;7.40;96959.00;;;;5018877;28;20565;-81
2023/03/01 00:48:45;;;;;;;8.50;7.60;;;7.60;59.00;7.40;96954.00;;;;5038044;28;20202;-81
2023/03/01 00:51:17;;;;;;;9.83;7.10;;;7.60;59.00;7.40;96947.00;;;;5041020;28;20223;-81
2023/03/01 00:53:45;;;;;;;10.13;7.43;;;7.60;59.00;7.40;96954.00;;;;5031345;28;20208;-80
2023/03/01 00:56:15;;;;;;;9.10;7.30;;;7.60;59.00;7.40;96948.00;;;;5036481;28;20199;-81
2023/03/01 00:58:44;;;;;;;10.10;7.70;;;7.60;59.00;7.40;96942.00;;;;5041927;28;20276;-81
2023/03/01 01:01:18;;;;;;;8.23;7.37;;;7.60;59.10;7.40;96939.00;;;;5035450;28;20324;-80
2023/03/01 01:03:47;;;;;;;9.10;7.43;;;7.60;59.00;7.40;96930.00;;;;5036420;28;20662;-81
2023/03/01 01:06:19;;;;;;;9.07;7.40;;;7.60;59.00;7.40;96920.00;;;;5037686;28;20276;-80
2023/03/01 01:08:47;;;;;;;8.93;7.37;;;7.60;59.20;7.40;96937.00;;;;5037387;28;20222;-80
2023/03/01 01:11:15;;;;;;;10.37;7.33;;;7.60;59.20;7.40;96923.00;;;;5038451;28;20288;-80
2023/03/01 01:13:44;;;;;;;9.53;7.43;;;7.60;59.80;7.40;96922.00;;;;5034051;28;20236;-80
2023/03/01 01:16:12;;;;;;;9.73;7.23;;;7.60;59.20;7.40;96918.00;;;;5035024;28;20288;-81
2023/03/01 01:18:40;;;;;;;9.03;7.50;;;7.60;59.20;7.30;96920.00;;;;5016165;28;20195;-82
2023/03/01 01:21:10;;;;;;;10.27;7.30;;;7.60;59.30;7.40;96922.00;;;;5022616;28;20229;-81
2023/03/01 01:23:41;;;;;;;9.23;6.90;;;7.60;59.20;7.30;96917.00;;;;5025031;28;20693;-81
2023/03/01 01:26:12;;;;;;;9.27;7.57;;;7.60;59.10;7.30;96915.00;;;;5027672;28;20198;-82
2023/03/01 01:28:40;;;;;;;10.60;7.90;;;7.60;59.20;7.30;96909.00;;;;5032803;28;20266;-80
2023/03/01 01:31:08;;;;;;;9.07;7.20;;;7.60;59.20;7.30;96910.00;;;;5023838;28;20249;-80
2023/03/01 01:33:37;;;;;;;9.73;7.23;;;7.50;59.20;7.30;96908.00;;;;5037380;28;20275;-80
2023/03/01 01:36:05;;;;;;;10.60;7.30;;;7.50;59.20;7.30;96906.00;;;;5038993;28;20194;-80
2023/03/01 01:38:33;;;;;;;9.83;7.23;;;7.50;59.20;7.30;96902.00;;;;5033915;28;20201;-80
2023/03/01 01:41:02;;;;;;;8.83;7.77;;;7.50;59.20;7.30;96902.00;;;;5032001;28;20320;-80
2023/03/01 01:43:34;;;;;;;8.13;7.10;;;7.50;59.20;7.30;96901.00;;;;5032488;28;20216;-81
2023/03/01 01:46:12;;;;;;;8.53;7.10;;;7.50;59.20;7.30;96903.00;;;;5033648;28;20285;-81
2023/03/01 01:48:45;;;;;;;8.57;7.00;;;7.50;59.30;7.30;96903.00;;;;5038315;28;20197;-81
2023/03/01 01:51:20;;;;;;;10.60;8.13;;;7.50;59.40;7.30;96904.00;;;;5016896;28;20217;-81
2023/03/01 01:53:56;;;;;;;8.60;7.57;;;7.50;59.40;7.30;96905.00;;;;5034118;28;20207;-82
2023/03/01 01:56:28;;;;;;;8.30;7.33;;;7.50;59.30;7.20;96905.00;;;;5033802;28;20186;-81
2023/03/01 01:58:57;;;;;;;9.10;6.97;;;7.50;59.20;7.20;96895.00;;;;5045301;28;20261;-82
2023/03/01 02:01:24;;;;;;;8.20;6.60;;;7.50;59.20;7.20;96899.00;;;;5034692;28;20221;-80
2023/03/01 02:03:53;;;;;;;9.87;7.30;;;7.50;59.30;7.20;96902.00;;;;5038237;28;20680;-81
2023/03/01 02:06:28;;;;;;;9.77;7.00;;;7.50;59.40;7.20;96894.00;;;;5041502;28;20279;-80
2023/03/01 02:09:01;;;;;;;9.37;7.10;;;7.50;59.30;7.20;96898.00;;;;5023840;28;20194;-81
2023/03/01 02:11:33;;;;;;;10.00;7.03;;;7.40;59.30;7.20;96901.00;;;;5015598;28;20733;-80
2023/03/01 02:14:01;;;;;;;8.80;7.70;;;7.40;59.80;7.20;96897.00;;;;5033580;28;20209;-80
2023/03/01 02:16:30;;;;;;;9.17;7.57;;;7.40;59.20;7.10;96891.00;;;;5030698;28;20201;-81
2023/03/01 02:18:59;;;;;;;9.60;7.37;;;7.40;59.20;7.10;96878.00;;;;5028887;28;20206;-79
2023/03/01 02:21:41;;;;;;;9.17;7.37;;;7.40;59.20;7.10;96876.00;;;;5019489;28;20225;-81
2023/03/01 02:24:25;;;;;;;8.40;7.17;;;7.40;59.20;7.10;96871.00;;;;5040529;28;20216;-81
2023/03/01 02:26:57;;;;;;;8.73;6.97;;;7.40;59.20;7.10;96875.00;;;;5042451;28;20240;-81
2023/03/01 02:29:29;;;;;;;9.00;7.27;;;7.40;59.20;7.10;96871.00;;;;5040654;28;20198;-80
2023/03/01 02:32:03;;;;;;;9.33;7.00;;;7.20;59.10;7.00;96881.00;;;;5043124;28;20222;-80
2023/03/01 02:34:33;;;;;;;9.00;7.47;;;7.30;59.20;7.00;96882.00;;;;5035506;28;20220;-81
2023/03/01 02:37:05;;;;;;;8.80;6.97;;;7.30;59.80;7.00;96881.00;;;;5037557;28;20282;-81
2023/03/01 02:39:41;;;;;;;9.37;7.23;;;7.30;59.20;7.00;96871.00;;;;5048961;28;20796;-80
2023/03/01 02:42:16;;;;;;;9.00;7.43;;;7.30;59.00;7.00;96873.00;;;;5046485;28;20217;-80
2023/03/01 02:44:45;;;;;;;8.93;6.87;;;7.20;59.00;6.90;96875.00;;;;5031815;28;20275;-81
2023/03/01 02:47:13;;;;;;;9.83;7.23;;;7.20;59.00;6.90;96871.00;;;;5023794;28;20190;-80
2023/03/01 02:49:40;;;;;;;8.43;7.43;;;7.20;58.90;6.90;96867.00;;;;5022989;28;20289;-81
2023/03/01 02:52:57;;;;;;;8.33;7.07;;;7.20;58.90;6.80;96863.00;;;;5025339;28;20212;-79
2023/03/01 02:55:24;;;;;;;7.77;6.80;;;7.20;58.80;6.80;96867.00;;;;5023475;28;20709;-81
2023/03/01 02:57:52;;;;;;;10.13;7.63;;;7.10;58.80;6.70;96859.00;;;;5031491;28;20297;-81
2023/03/01 03:00:27;;;;;;;8.33;6.80;;;7.10;58.80;6.70;96863.00;;;;5027318;28;20274;-81
2023/03/01 03:02:56;;;;;;;10.73;7.20;;;7.00;58.90;6.70;96864.00;;;;5012710;28;20589;-81
2023/03/01 03:05:29;;;;;;;9.80;7.63;;;7.00;58.90;6.60;96861.00;;;;5023097;28;20240;-80
2023/03/01 03:07:58;;;;;;;8.43;7.20;;;7.00;58.90;6.60;96858.00;;;;5031156;28;20197;-80
2023/03/01 03:10:29;;;;;;;9.10;7.60;;;6.90;58.80;6.50;96860.00;;;;5035635;28;20229;-80
2023/03/01 03:13:01;;;;;;;11.53;8.00;;;6.90;58.70;6.40;96858.00;;;;5021035;28;20200;-80
2023/03/01 03:15:31;;;;;;;9.83;7.63;;;6.80;59.20;6.40;96863.00;;;;5026062;28;20714;-80
2023/03/01 03:18:00;;;;;;;9.20;7.23;;;6.80;58.50;6.30;96853.00;;;;5015777;28;20210;-81
2023/03/01 03:20:29;;;;;;;10.17;8.03;;;6.70;58.50;6.20;96852.00;;;;5035217;27;20307;-82
2023/03/01 03:22:59;;;;;;;10.03;8.03;;;6.70;58.40;6.10;96847.00;;;;4979302;28;20205;-81
2023/03/01 03:25:29;;;;;;;10.40;7.73;;;6.60;58.30;6.10;96848.00;;;;5022242;28;20204;-80
2023/03/01 03:27:57;;;;;;;12.80;7.43;;;6.60;58.40;6.00;96847.00;;;;5031420;27;20201;-80
2023/03/01 03:30:30;;;;;;;9.33;8.03;;;6.50;58.40;5.90;96850.00;;;;5029183;28;20600;-80
2023/03/01 03:32:59;;;;;;;9.33;7.63;;;6.40;58.50;5.90;96852.00;;;;5031153;28;20201;-81
2023/03/01 03:35:31;;;;;;;10.10;7.63;;;6.40;58.60;5.80;96849.00;;;;5030942;28;20302;-80
2023/03/01 03:38:03;;;;;;;9.37;7.70;;;6.30;58.60;5.80;96841.00;;;;5030266;28;20200;-81
2023/03/01 03:40:34;;;;;;;9.60;7.50;;;6.30;58.60;5.70;96843.00;;;;5040784;28;20218;-81
2023/03/01 03:43:02;;;;;;;8.73;7.83;;;6.20;58.50;5.70;96843.00;;;;5032861;28;20193;-80
2023/03/01 03:45:33;;;;;;;9.17;7.80;;;6.20;58.60;5.60;96839.00;;;;5030586;28;20200;-81
2023/03/01 03:48:00;;;;;;;9.73;7.57;;;6.10;58.60;5.60;96838.00;;;;5031667;28;20597;-81
2023/03/01 03:50:28;;;;;;;9.00;7.80;;;6.00;58.60;5.50;96835.00;;;;5029075;28;20197;-81
2023/03/01 03:52:55;;;;;;;9.10;7.53;;;6.00;59.20;5.50;96837.00;;;;4997111;28;20194;-80
2023/03/01 03:55:29;;;;;;;10.47;8.37;;;6.00;58.70;5.40;96839.00;;;;5031348;28;20284;-81
2023/03/01 03:58:02;;;;;;;11.23;8.03;;;5.90;58.70;5.40;96825.00;;;;5029107;28;20228;-81
2023/03/01 04:00:30;;;;;;;9.87;7.67;;;5.90;58.80;5.30;96823.00;;;;5031521;28;20725;-81
2023/03/01 04:02:58;;;;;;;11.87;8.03;;;5.80;58.80;5.30;96819.00;;;;5031621;28;20200;-80
2023/03/01 04:05:26;;;;;;;11.23;7.83;;;5.70;58.80;5.20;96818.00;;;;5040530;28;20335;-81
2023/03/01 04:08:06;;;;;;;9.17;7.77;;;5.70;58.80;5.20;96815.00;;;;5040726;28;20840;-80
2023/03/01 04:10:38;;;;;;;9.40;7.43;;;5.70;58.90;5.10;96813.00;;;;5030871;28;20729;-81
2023/03/01 04:13:06;;;;;;;10.20;7.50;;;5.60;58.90;5.10;96820.00;;;;5014001;28;20233;-82
2023/03/01 04:15:36;;;;;;;10.93;8.17;;;5.60;59.00;5.00;96814.00;;;;5028211;28;20200;-81
2023/03/01 04:18:05;;;;;;;9.60;7.87;;;5.60;59.10;5.00;96804.00;;;;5039875;28;20250;-82
2023/03/01 04:20:35;;;;;;;9.93;7.43;;;5.50;59.10;5.00;96813.00;;;;5036675;28;20709;-82
2023/03/01 04:23:13;;;;;;;11.73;8.20;;;5.50;59.20;4.90;96810.00;;;;5038453;28;20649;-82
2023/03/01 04:25:42;;;;;;;11.60;8.80;;;5.50;59.30;4.90;96807.00;;;;5033282;28;20208;-81
2023/03/01 04:28:10;;;;;;;9.03;7.43;;;5.40;59.40;4.90;96814.00;;;;5031390;28;20197;-82
2023/03/01 04:30:41;;;;;;;12.87;8.63;;;5.40;59.40;4.90;96815.00;;;;5031229;28;20304;-82
2023/03/01 04:33:13;;;;;;;11.50;8.23;;;5.40;59.50;4.80;96807.00;;;;5034027;28;20216;-82
2023/03/01 04:35:41;;;;;;;10.03;7.70;;;5.30;59.40;4.80;96807.00;;;;5030902;28;20285;-82
2023/03/01 04:38:09;;;;;;;11.30;8.20;;;5.30;59.40;4.80;96804.00;;;;5016589;28;20246;-82
2023/03/01 04:40:37;;;;;;;10.73;7.37;;;5.30;59.50;4.70;96810.00;;;;5021166;28;20249;-81
2023/03/01 04:43:05;;;;;;;11.93;8.70;;;5.20;59.40;4.70;96800.00;;;;5028094;28;20494;-81
2023/03/01 04:45:35;;;;;;;11.23;8.10;;;5.20;59.50;4.70;96804.00;;;;5029667;28;20766;-81
2023/03/01 04:48:06;;;;;;;9.30;7.77;;;5.20;59.60;4.70;96809.00;;;;5009817;28;20232;-80
2023/03/01 04:50:33;;;;;;;10.00;8.17;;;5.20;59.70;4.60;96801.00;;;;5024681;28;20193;-82
2023/03/01 04:53:01;;;;;;;12.00;9.47;;;5.10;59.60;4.60;96801.00;;;;5029874;28;20212;-82
2023/03/01 04:55:29;;;;;;;11.63;8.13;;;5.10;59.60;4.60;96804.00;;;;5031602;28;20198;-82
2023/03/01 04:57:57;;;;;;;12.53;8.33;;;5.10;59.70;4.60;96793.00;;;;5031206;28;20680;-82
2023/03/01 05:00:25;;;;;;;11.07;8.17;;;5.00;59.70;4.50;96793.00;;;;5030287;28;20282;-82
2023/03/01 05:02:56;;;;;;;13.07;8.50;;;5.00;59.70;4.50;96784.00;;;;5031335;28;20649;-81
2023/03/01 05:05:30;;;;;;;10.70;8.07;;;5.00;59.80;4.50;96786.00;;;;5035359;28;20455;-82
2023/03/01 05:08:00;;;;;;;11.53;8.60;;;5.00;59.90;4.50;96781.00;;;;5019449;28;20274;-82
2023/03/01 05:10:30;;;;;;;10.47;8.07;;;5.00;59.90;4.50;96779.00;;;;5024134;28;20277;-81
2023/03/01 05:12:58;;;;;;;12.23;9.17;;;4.90;59.90;4.40;96773.00;;;;5029196;28;20558;-82
2023/03/01 05:15:27;;;;;;;10.37;8.30;;;4.90;59.90;4.40;96777.00;;;;5014238;28;20202;-82
2023/03/01 05:17:58;;;;;;;12.03;8.53;;;4.90;60.00;4.40;96784.00;;;;5024916;28;20595;-83
2023/03/01 05:20:28;;;;;;;11.13;8.07;;;4.90;60.10;4.40;96776.00;;;;5024630;28;20479;-82
2023/03/01 05:23:00;;;;;;;12.17;9.07;;;4.90;60.20;4.40;96777.00;;;;5026200;28;20436;-82
2023/03/01 05:25:39;;;;;;;11.37;8.47;;;4.90;60.20;4.40;96778.00;;;;5010438;28;20200;-82
2023/03/01 05:28:11;;;;;;;12.17;8.50;;;4.90;60.20;4.30;96774.00;;;;5020273;28;20201;-82
2023/03/01 05:30:40;;;;;;;11.67;8.63;;;4.80;60.20;4.30;96774.00;;;;5036886;27;20495;-82
2023/03/01 05:33:12;;;;;;;10.00;8.40;;;4.80;60.20;4.30;96783.00;;;;5024148;28;20226;-83
2023/03/01 05:35:43;;;;;;;11.10;8.90;;;4.80;60.20;4.30;96787.00;;;;5032923;28;20539;-83
2023/03/01 05:38:12;;;;;;;12.13;9.00;;;4.80;60.30;4.30;96779.00;;;;5035691;28;20226;-80
2023/03/01 05:40:41;;;;;;;11.93;8.33;;;4.80;60.30;4.20;96778.00;;;;5038152;28;20221;-82
2023/03/01 05:43:10;;;;;;;11.40;8.50;;;4.70;60.30;4.20;96788.00;;;;5034855;28;20436;-83
2023/03/01 05:45:39;;;;;;;12.60;8.93;;;4.70;60.30;4.20;96774.00;;;;5036213;28;20543;-83
2023/03/01 05:48:08;;;;;;;11.43;9.07;;;4.70;60.40;4.20;96780.00;;;;5017625;28;20444;-83
2023/03/01 05:50:38;;;;;;;10.40;8.13;;;4.70;60.40;4.20;96779.00;;;;5036918;28;20308;-81
2023/03/01 05:53:12;;;;;;;12.03;9.67;;;4.70;60.40;4.20;96778.00;;;;5035226;28;20201;-82
2023/03/01 05:55:40;;;;;;;11.00;9.03;;;4.70;60.50;4.10;96779.00;;;;5034464;28;20444;-82
2023/03/01 05:58:14;;;;;;;12.73;9.70;;;4.60;60.50;4.10;96782.00;;;;5030188;28;20289;-84
2023/03/01 06:00:43;;;;;;;12.83;9.33;;;4.60;60.50;4.20;96781.00;;;;5023669;28;20465;-83
2023/03/01 06:03:16;;;;;;;10.87;8.67;;;4.60;60.60;4.20;96778.00;;;;5026277;28;20480;-85
2023/03/01 06:05:44;;;;;;;11.00;9.10;;;4.60;60.70;4.20;96783.00;;;;5027261;28;20831;-85
2023/03/01 06:08:14;;;;;;;12.67;9.77;;;4.60;60.60;4.30;96781.00;;;;5033550;28;20194;-85
2023/03/01 06:10:42;;;;;;;11.23;8.57;;;4.60;60.70;4.30;96777.00;;;;5020518;28;20504;-85
2023/03/01 06:13:10;;;;;;;11.00;8.57;;;4.60;60.60;4.30;96784.00;;;;5016953;28;20689;-86
2023/03/01 06:15:37;;;;;;;13.07;9.57;;;4.60;60.60;4.30;96788.00;;;;5037080;28;20463;-86
2023/03/01 06:18:05;;;;;;;12.57;9.30;;;4.60;60.60;4.40;96783.00;;;;5033882;28;20757;-87
2023/03/01 06:20:33;;;;;;;12.70;9.30;;;4.70;60.80;4.40;96787.00;;;;5032685;27;20949;-85
2023/03/01 06:23:00;;;;;;;14.03;10.13;;;4.70;60.80;4.40;96803.00;;;;5034649;28;20480;-85
2023/03/01 06:25:29;;;;;;;16.70;9.93;;;4.70;60.80;4.40;96790.00;;;;5033521;28;20460;-85
2023/03/01 06:27:59;;;;;;;11.50;9.10;;;4.70;60.80;4.40;96796.00;;;;5038412;28;20227;-85
2023/03/01 06:30:28;;;;;;;12.00;9.30;;;4.70;60.90;4.40;96797.00;;;;5036082;28;20273;-85
2023/03/01 06:33:01;;;;;;;13.97;9.83;;;4.70;60.90;4.40;96796.00;;;;5046163;28;20221;-85
2023/03/01 06:35:30;;;;;;;11.67;9.07;;;4.70;60.90;4.40;96790.00;;;;5048082;28;20440;-83
2023/03/01 06:38:01;;;;;;;10.90;8.23;;;4.70;60.80;4.40;96795.00;;;;5054303;28;20198;-81
2023/03/01 06:40:32;;;;;;;13.23;9.17;;;4.70;60.90;4.50;96805.00;;;;5046713;28;20636;-82
2023/03/01 06:43:02;;;;;;;12.57;9.87;;;4.70;61.00;4.50;96802.00;;;;5039117;28;20201;-82
2023/03/01 06:45:33;;;;;;;12.60;9.73;;;4.80;61.00;4.50;96807.00;;;;5030275;28;20652;-81
2023/03/01 06:48:05;;;;;;;13.13;9.17;;;4.80;61.00;4.50;96803.00;;;;5041604;28;20205;-81
2023/03/01 06:50:33;;;;;;;12.13;9.30;;;4.80;61.10;4.60;96801.00;;;;5051812;28;20446;-83
2023/03/01 06:53:01;;;;;;;12.60;9.20;;;4.80;61.10;4.60;96801.00;;;;5052592;28;20440;-83
2023/03/01 06:55:31;;;;;;;10.97;9.03;;;4.80;61.20;4.60;96800.00;;;;5049074;28;20200;-83
2023/03/01 06:58:01;;;;;;;14.20;10.47;;;4.90;61.30;4.60;96803.00;;;;5049500;28;20190;-82
2023/03/01 07:00:30;;;;;;;13.57;8.70;;;4.80;61.30;4.70;96797.00;;;;5066497;28;20443;-84
2023/03/01 07:03:01;;;;;;;14.27;9.50;;;4.90;61.30;4.70;96794.00;;;;5048580;28;20225;-83
2023/03/01 07:05:29;;;;;;;13.67;10.20;;;4.90;61.30;4.70;96796.00;;;;5042818;28;20205;-81
2023/03/01 07:07:57;;;;;;;13.77;9.07;;;4.90;61.20;4.80;96796.00;;;;5034447;28;20197;-85
2023/03/01 07:10:25;;;;;;;12.97;9.87;;;5.00;61.30;4.80;96797.00;;;;5031884;28;20690;-85
2023/03/01 07:12:58;;;;;;;13.60;9.60;;;5.00;61.30;4.80;96786.00;;;;5032593;28;20468;-85
2023/03/01 07:15:27;;;;;;;13.63;9.20;;;5.00;61.10;4.80;96798.00;;;;5032173;28;20290;-85
2023/03/01 07:17:54;;;;;;;13.57;9.17;;;5.00;61.20;4.80;96786.00;;;;5030908;28;20281;-86
2023/03/01 07:20:24;;;;;;;14.03;10.20;;;5.00;61.30;4.90;96781.00;;;;5047302;28;20223;-87
2023/03/01 07:22:52;;;;;;;12.90;9.43;;;5.10;61.30;4.90;96785.00;;;;5031057;28;20221;-86
2023/03/01 07:25:19;;;;;;;13.50;9.73;;;5.10;61.20;4.90;96775.00;;;;5033007;28;20205;-85
2023/03/01 07:27:53;;;;;;;12.50;9.77;;;5.10;61.20;5.00;96782.00;;;;5037971;28;20197;-87
2023/03/01 07:30:25;;;;;;;12.60;9.90;;;5.20;61.10;5.00;96784.00;;;;5026349;28;20205;-87
2023/03/01 07:32:53;;;;;;;14.47;9.53;;;5.20;61.10;5.10;96785.00;;;;5015272;28;20210;-87
2023/03/01 07:35:20;;;;;;;13.37;10.27;;;5.20;61.10;5.10;96776.00;;;;4996154;28;20251;-86
2023/03/01 07:37:48;;;;;;;14.17;10.10;;;5.20;61.10;5.10;96780.00;;;;5012043;28;20285;-87
2023/03/01 07:40:16;;;;;;;13.40;9.43;;;5.30;61.20;5.20;96775.00;;;;4998273;28;20285;-87
2023/03/01 07:42:43;;;;;;;12.30;8.57;;;5.30;61.10;5.20;96773.00;;;;5026425;28;20702;-87
2023/03/01 07:45:13;;;;;;;14.60;9.83;;;5.30;60.90;5.30;96779.00;;;;5031309;28;20285;-86
2023/03/01 07:47:41;;;;;;;14.60;9.80;;;5.40;61.00;5.30;96781.00;;;;5032383;28;20670;-89
2023/03/01 07:50:13;;;;;;;13.63;9.73;;;5.50;61.10;5.40;96776.00;;;;5036657;28;20656;-85
2023/03/01 07:52:40;;;;;;;14.23;9.80;;;5.50;61.50;5.40;96769.00;;;;5035895;28;20623;-83
2023/03/01 07:55:09;;;;;;;14.30;9.57;;;5.60;61.00;5.50;96775.00;;;;5053160;28;20214;-83
2023/03/01 07:57:37;;;;;;;13.10;9.27;;;5.60;60.80;5.60;96771.00;;;;5059447;28;20201;-83
2023/03/01 08:00:07;;;;;;;13.13;9.23;;;5.70;60.80;5.60;96773.00;;;;5055452;28;20236;-84
2023/03/01 08:02:35;;;;;;;14.23;10.13;;;5.70;60.60;5.70;96777.00;;;;5050351;28;20231;-84
2023/03/01 08:05:04;;;;;;;13.23;9.90;;;5.80;60.60;5.80;96777.00;;;;5051402;28;20220;-84
2023/03/01 08:07:32;;;;;;;13.63;9.30;;;5.90;60.50;5.80;96774.00;;;;5052810;28;20292;-83
2023/03/01 08:09:59;;;;;;;12.30;9.03;;;5.90;60.50;5.90;96779.00;;;;5037484;28;20216;-82
2023/03/01 08:12:27;;;;;;;13.80;10.80;;;6.00;60.50;6.10;96784.00;;;;5050088;28;20224;-87
2023/03/01 08:14:55;;;;;;;12.47;8.87;;;6.10;60.50;6.20;96771.00;;;;5052110;28;20220;-85
2023/03/01 08:17:22;;;;;;;12.67;9.47;;;6.20;60.50;6.30;96763.00;;;;5050641;27;20250;-86
2023/03/01 08:19:50;;;;;;;14.47;9.67;;;6.30;60.40;6.40;96762.00;;;;5043043;27;20287;-83
2023/03/01 08:22:19;;;;;;;13.43;9.70;;;6.40;60.30;6.50;96757.00;;;;5031899;28;20294;-85
2023/03/01 08:24:47;;;;;;;14.07;9.63;;;6.50;60.20;6.60;96754.00;;;;5031385;28;20205;-84
2023/03/01 08:27:17;;;;;;;12.30;9.23;;;6.60;60.20;6.80;96763.00;;;;5032326;28;20264;-84
2023/03/01 08:29:44;;;;;;;11.77;10.20;;;6.70;60.20;6.90;96761.00;;;;5042012;28;20201;-84
2023/03/01 08:32:12;;;;;;;13.00;9.37;;;6.80;60.10;7.00;96759.00;;;;5023337;28;20766;-84
2023/03/01 08:34:39;;;;;;;13.27;9.33;;;7.00;60.00;7.20;96754.00;;;;5034201;28;20284;-86
2023/03/01 08:37:06;;;;;;;11.17;9.50;;;7.00;59.80;7.40;96761.00;;;;5032615;28;20217;-84
2023/03/01 08:39:35;;;;;;;11.43;9.63;;;7.20;59.90;7.50;96763.00;;;;5034855;28;21770;-84
2023/03/01 08:42:03;;;;;;;11.17;9.00;;;7.30;59.50;7.70;96768.00;;;;5021839;28;20225;-84
2023/03/01 08:44:30;;;;;;;13.17;9.20;;;7.40;59.40;7.80;96770.00;;;;5037861;28;20233;-83
2023/03/01 08:46:57;;;;;;;13.90;10.17;;;7.60;59.40;7.90;96771.00;;;;5036644;28;20261;-84
2023/03/01 08:49:25;;;;;;;12.53;10.17;;;7.70;59.30;8.10;96770.00;;;;5037133;28;20220;-84
2023/03/01 08:51:54;;;;;;;12.23;9.37;;;7.80;59.00;8.20;96765.00;;;;5035075;28;20672;-85
2023/03/01 08:54:23;;;;;;;13.13;9.87;;;7.90;58.90;8.40;96762.00;;;;5035437;28;20198;-83
2023/03/01 08:56:51;;;;;;;13.07;9.40;;;8.10;58.80;8.50;96766.00;;;;5032176;28;20201;-84
2023/03/01 08:59:20;;;;;;;13.47;9.97;;;8.20;58.60;8.60;96757.00;;;;5034241;28;20276;-83
2023/03/01 09:01:47;;;;;;;11.93;9.53;;;8.30;58.70;8.80;96774.00;;;;5036168;28;20227;-87
2023/03/01 09:04:17;;;;;;;12.60;9.70;;;8.40;58.50;8.90;96765.00;;;;5013501;28;20203;-85
2023/03/01 09:06:45;;;;;;;12.23;10.23;;;8.60;58.40;9.00;96772.00;;;;5032175;28;20202;-85
2023/03/01 09:09:16;;;;;;;12.97;9.83;;;8.70;58.30;9.10;96762.00;;;;5033456;28;20269;-85
2023/03/01 09:11:45;;;;;;;12.37;9.67;;;8.80;58.00;9.30;96767.00;;;;5026682;28;20233;-84
2023/03/01 09:14:15;;;;;;;11.63;8.93;;;8.90;58.00;9.40;96758.00;;;;5021523;28;20198;-85
2023/03/01 09:16:43;;;;;;;11.57;8.90;;;9.00;57.80;9.60;96753.00;;;;5020295;28;20241;-85
2023/03/01 09:19:11;;;;;;;12.97;9.30;;;9.10;57.80;9.70;96754.00;;;;5041458;28;20197;-83
2023/03/01 09:21:39;;;;;;;12.77;9.57;;;9.30;58.00;9.80;96763.00;;;;5039785;28;20245;-84
2023/03/01 09:24:07;;;;;;;11.43;9.27;;;9.40;57.80;10.00;96764.00;;;;5019579;28;20206;-82
2023/03/01 09:26:35;;;;;;;11.77;8.90;;;9.50;57.80;10.20;96762.00;;;;5039254;28;20193;-82
2023/03/01 09:29:02;;;;;;;10.40;8.73;;;9.70;57.70;10.30;96763.00;;;;5027786;28;20206;-82
2023/03/01 09:31:31;;;;;;;10.63;8.33;;;9.80;57.40;10.40;96775.00;;;;5022038;28;20225;-81
2023/03/01 09:33:59;;;;;;;11.67;9.03;;;9.90;57.30;10.50;96765.00;;;;5023498;28;20209;-81
2023/03/01 09:36:27;;;;;;;10.50;8.53;;;10.00;57.30;10.70;96771.00;;;;5041650;28;20717;-81
2023/03/01 09:38:55;;;;;;;10.20;8.27;;;10.10;57.00;10.80;96761.00;;;;5044314;28;20257;-82
2023/03/01 09:41:55;;;;;;;14.83;10.90;;;10.30;56.80;10.90;96756.00;;;;5043631;28;20221;-83
2023/03/01 09:44:34;;;;;;;12.13;9.07;;;10.40;56.00;11.10;96762.00;;;;5038753;28;20285;-83
2023/03/01 09:47:04;;;;;;;11.80;9.13;;;10.60;56.60;11.30;96757.00;;;;5035679;28;20189;-80
2023/03/01 09:49:40;;;;;;;11.27;8.77;;;10.70;56.80;11.40;96759.00;;;;5041508;28;20221;-81
2023/03/01 09:52:25;;;;;;;10.43;8.50;;;10.80;56.60;11.60;96744.00;;;;5041524;28;20369;-81
2023/03/01 09:54:56;;;;;;;10.20;8.93;;;11.00;56.40;11.70;96750.00;;;;5039488;27;20201;-79
2023/03/01 09:57:35;;;;;;;12.40;8.80;;;11.20;56.50;11.90;96752.00;;;;5040655;28;20298;-81
2023/03/01 10:00:24;;;;;;;11.60;9.00;;;11.30;56.40;12.10;96749.00;;;;5040437;28;20205;-82
2023/03/01 10:03:03;;;;;;;12.20;8.67;;;11.40;56.30;12.30;96753.00;;;;5029206;28;20254;-83
2023/03/01 10:05:44;;;;;;;10.47;8.90;;;11.60;56.20;12.50;96749.00;;;;5022500;28;20250;-82
2023/03/01 10:08:31;;;;;;;10.43;8.17;;;11.80;56.20;12.70;96751.00;;;;5078516;28;20220;-83
2023/03/01 10:10:59;;;;;;;13.20;8.00;;;12.00;56.10;12.90;96741.00;;;;5053343;28;20233;-82
2023/03/01 10:13:38;;;;;;;11.43;9.47;;;12.20;56.70;13.00;96742.00;;;;5064346;28;20399;-83
2023/03/01 10:16:16;;;;;;;11.73;9.10;;;12.40;56.20;13.10;96743.00;;;;5047171;28;20224;-82
2023/03/01 10:18:49;;;;;;;10.17;9.10;;;12.50;55.90;13.10;96735.00;;;;5056378;28;20209;-83
2023/03/01 10:21:20;;;;;;;10.30;8.47;;;12.70;55.70;13.20;96728.00;;;;5034915;28;20213;-82
2023/03/01 10:23:53;;;;;;;9.80;8.37;;;12.80;55.30;13.30;96742.00;;;;5059959;28;20225;-81
2023/03/01 10:26:52;;;;;;;12.13;8.83;;;13.00;55.40;13.40;96733.00;;;;5042307;28;20218;-83
2023/03/01 10:29:27;;;;;;;11.37;9.40;;;13.10;54.70;13.50;96727.00;;;;5030364;28;20236;-87
2023/03/01 10:31:59;;;;;;;9.37;8.37;;;13.30;55.20;13.60;96731.00;;;;5030316;28;20248;-85
2023/03/01 10:34:34;;;;;;;12.17;8.83;;;13.30;54.30;13.60;96739.00;;;;5050448;28;20219;-85
2023/03/01 10:37:11;;;;;;;10.50;8.03;;;13.40;54.20;13.60;96731.00;;;;5046287;28;20657;-85
2023/03/01 10:39:56;;;;;;;9.87;8.73;;;13.50;54.00;13.70;96719.00;;;;5039117;28;20216;-84
2023/03/01 10:42:30;;;;;;;12.30;9.13;;;13.60;54.20;13.70;96715.00;;;;5036869;28;20244;-87
2023/03/01 10:44:59;;;;;;;11.00;8.43;;;13.60;53.90;13.70;96710.00;;;;5053088;28;20197;-85
2023/03/01 10:47:29;;;;;;;10.57;8.50;;;13.70;53.90;13.80;96709.00;;;;5039750;28;20236;-84
2023/03/01 10:50:04;;;;;;;9.90;8.17;;;13.70;53.70;13.80;96700.00;;;;5040388;28;20198;-83
2023/03/01 10:52:36;;;;;;;9.40;8.37;;;13.80;53.40;13.80;96705.00;;;;5046296;28;20251;-86
2023/03/01 10:55:25;;;;;;;9.40;7.90;;;13.80;53.40;13.80;96702.00;;;;5032635;28;20232;-88
2023/03/01 10:58:17;;;;;;;9.90;8.60;;;13.90;53.20;13.80;96698.00;;;;5033196;28;20247;-85
2023/03/01 11:00:54;;;;;;;9.57;7.87;;;13.90;52.40;13.80;96686.00;;;;5019998;28;20242;-86
2023/03/01 11:03:26;;;;;;;9.30;8.17;;;13.90;52.60;13.70;96681.00;;;;5022476;28;20226;-88
2023/03/01 11:05:59;;;;;;;10.87;8.10;;;13.90;52.60;13.70;96669.00;;;;5039538;27;20280;-84
2023/03/01 11:08:40;;;;;;;11.47;8.77;;;13.80;52.40;13.60;96677.00;;;;5030505;28;20288;-84
2023/03/01 11:11:32;;;;;;;10.33;8.37;;;13.80;51.80;13.50;96664.00;;;;5016222;28;20225;-85
2023/03/01 11:14:04;;;;;;;10.17;8.43;;;13.70;51.60;13.40;96664.00;;;;5017073;28;20251;-84
2023/03/01 11:16:38;;;;;;;10.73;8.23;;;13.60;51.80;13.20;96661.00;;;;5013820;28;20239;-84
2023/03/01 11:19:21;;;;;;;10.77;8.47;;;13.50;51.30;13.00;96649.00;;;;5013937;28;20197;-85